createdAt,value
2019-03-15T00:01:34.873Z,96923.66
2019-03-15T00:04:03.367Z,96923.81
2019-03-15T00:06:31.900Z,96926.96
2019-03-15T00:09:00.388Z,96940.73
2019-03-15T00:11:29.346Z,96936.57
2019-03-15T00:13:58.036Z,96943.56
2019-03-15T00:16:26.505Z,96967.02
2019-03-15T00:18:54.999Z,96968.33
2019-03-15T00:21:23.478Z,96966.72
2019-03-15T00:23:51.948Z,96973.20
2019-03-15T00:26:20.443Z,96969.13
2019-03-15T00:28:48.919Z,96977.03
2019-03-15T00:31:17.414Z,96989.09
2019-03-15T00:33:45.882Z,96978.68
2019-03-15T00:36:14.375Z,96996.52
2019-03-15T00:38:42.850Z,96997.54
2019-03-15T00:41:11.347Z,97006.52
2019-03-15T00:43:39.819Z,97016.97
2019-03-15T00:46:08.316Z,97016.58
2019-03-15T00:48:36.785Z,97022.75
2019-03-15T00:51:05.350Z,97021.39
2019-03-15T00:53:33.828Z,97011.09
2019-03-15T00:56:02.328Z,97013.87
2019-03-15T00:58:30.799Z,97030.95
2019-03-15T01:00:59.290Z,97039.70
2019-03-15T01:03:27.760Z,97044.63
2019-03-15T01:05:56.258Z,97047.06
2019-03-15T01:08:24.731Z,97044.57
2019-03-15T01:10:53.229Z,97051.34
2019-03-15T01:13:21.701Z,97062.67
2019-03-15T01:15:50.200Z,97067.19
2019-03-15T01:18:18.671Z,97064.59
2019-03-15T01:20:47.165Z,97063.73
2019-03-15T01:23:15.638Z,97063.73
2019-03-15T01:25:44.130Z,97087.78
2019-03-15T01:28:12.595Z,97103.49
2019-03-15T01:30:41.098Z,97103.49
2019-03-15T01:33:09.569Z,97099.75
2019-03-15T01:35:38.073Z,97096.94
2019-03-15T01:38:06.543Z,97113.45
2019-03-15T01:40:35.083Z,97114.45
2019-03-15T01:43:03.519Z,97119.48
2019-03-15T01:45:32.032Z,97107.23
2019-03-15T01:48:00.511Z,97125.48
2019-03-15T01:50:29.007Z,97134.53
2019-03-15T01:52:58.498Z,97133.67
2019-03-15T01:55:27.073Z,97133.67
2019-03-15T01:57:55.531Z,97135.19
2019-03-15T02:00:24.035Z,97145.19
2019-03-15T02:02:52.497Z,97145.19
2019-03-15T02:05:20.997Z,97150.73
2019-03-15T02:07:49.469Z,97154.84
2019-03-15T02:10:17.976Z,97167.25
2019-03-15T02:12:47.487Z,97170.23
2019-03-15T02:15:16.197Z,97170.23
2019-03-15T02:17:44.669Z,97183.02
2019-03-15T02:20:13.434Z,97187.75
2019-03-15T02:22:41.931Z,97203.11
2019-03-15T02:25:10.407Z,97203.11
2019-03-15T02:27:39.135Z,97211.65
2019-03-15T02:30:10.366Z,97199.20
2019-03-15T02:32:39.405Z,97214.53
2019-03-15T02:35:08.484Z,97214.75
2019-03-15T02:37:36.964Z,97219.31
2019-03-15T02:40:06.714Z,97215.70
2019-03-15T02:42:35.209Z,97227.59
2019-03-15T02:45:03.759Z,97227.59
2019-03-15T02:47:32.246Z,97233.20
2019-03-15T02:50:01.780Z,97238.12
2019-03-15T02:52:30.687Z,97238.12
2019-03-15T02:54:59.153Z,97251.19
2019-03-15T02:57:27.642Z,97254.78
2019-03-15T02:59:56.097Z,97266.08
2019-03-15T03:02:24.590Z,97269.36
2019-03-15T03:04:53.053Z,97264.31
2019-03-15T03:07:21.543Z,97264.31
2019-03-15T03:09:50.019Z,97264.84
2019-03-15T03:12:18.514Z,97275.30
2019-03-15T03:14:46.971Z,97275.09
2019-03-15T03:17:15.461Z,97281.66
2019-03-15T03:19:43.930Z,97282.45
2019-03-15T03:22:12.435Z,97282.45
2019-03-15T03:24:40.879Z,97277.47
2019-03-15T03:27:09.371Z,97287.56
2019-03-15T03:29:37.831Z,97283.56
2019-03-15T03:32:06.355Z,97286.22
2019-03-15T03:34:35.067Z,97288.31
2019-03-15T03:37:03.690Z,97294.16
2019-03-15T03:39:32.198Z,97297.81
2019-03-15T03:42:00.639Z,97294.69
2019-03-15T03:44:29.106Z,97303.17
2019-03-15T03:46:57.600Z,97303.17
2019-03-15T03:49:26.065Z,97304.76
2019-03-15T03:51:54.553Z,97306.40
2019-03-15T03:54:23.083Z,97307.45
2019-03-15T03:56:51.585Z,97307.45
2019-03-15T03:59:20.115Z,97316.99
2019-03-15T04:01:48.611Z,97311.51
2019-03-15T04:04:17.322Z,97303.58
2019-03-15T04:06:45.876Z,97305.59
2019-03-15T04:09:14.340Z,97308.91
2019-03-15T04:11:54.594Z,97310.36
2019-03-15T04:14:13.031Z,97310.36
2019-03-15T04:16:41.517Z,97321.20
2019-03-15T04:19:09.991Z,97324.61
2019-03-15T04:21:38.471Z,97333.04
2019-03-15T04:24:06.938Z,97337.66
2019-03-15T04:26:35.441Z,97336.23
2019-03-15T04:29:03.905Z,97334.06
2019-03-15T04:31:32.398Z,97333.59
2019-03-15T04:34:00.857Z,97343.08
2019-03-15T04:36:29.343Z,97347.20
2019-03-15T04:38:57.804Z,97355.22
2019-03-15T04:41:26.299Z,97364.30
2019-03-15T04:43:54.752Z,97361.27
2019-03-15T04:46:23.237Z,97366.81
2019-03-15T04:48:51.702Z,97364.58
2019-03-15T04:51:20.193Z,97375.05
2019-03-15T04:53:48.666Z,97377.53
2019-03-15T04:56:17.144Z,97377.53
2019-03-15T04:58:45.610Z,97388.66
2019-03-15T05:01:14.068Z,97384.47
2019-03-15T05:03:42.553Z,97384.47
2019-03-15T05:06:11.024Z,97383.02
2019-03-15T05:08:39.574Z,97389.68
2019-03-15T05:11:08.675Z,97387.50
2019-03-15T05:13:37.209Z,97389.25
2019-03-15T05:16:05.674Z,97380.45
2019-03-15T05:18:34.376Z,97387.08
2019-03-15T05:21:02.936Z,97381.44
2019-03-15T05:23:31.410Z,97393.34
2019-03-15T05:25:59.869Z,97397.64
2019-03-15T05:28:28.356Z,97394.61
2019-03-15T05:30:56.817Z,97403.04
2019-03-15T05:33:25.302Z,97385.78
2019-03-15T05:35:53.763Z,97393.84
2019-03-15T05:38:22.245Z,97397.30
2019-03-15T05:40:50.708Z,97389.06
2019-03-15T05:43:19.198Z,97397.89
2019-03-15T05:45:47.666Z,97407.59
2019-03-15T05:48:16.157Z,97403.72
2019-03-15T05:50:44.618Z,97403.72
2019-03-15T05:53:13.102Z,97411.75
2019-03-15T05:55:41.562Z,97397.11
2019-03-15T05:58:10.055Z,97397.11
2019-03-15T06:00:38.517Z,97408.50
2019-03-15T06:03:06.999Z,97407.81
2019-03-15T06:05:35.466Z,97400.44
2019-03-15T06:08:03.958Z,97407.84
2019-03-15T06:10:32.417Z,97412.98
2019-03-15T06:13:00.901Z,97418.81
2019-03-15T06:15:29.363Z,97448.36
2019-03-15T06:17:57.852Z,97423.61
2019-03-15T06:20:26.321Z,97430.34
2019-03-15T06:22:54.808Z,97439.03
2019-03-15T06:25:23.273Z,97448.20
2019-03-15T06:27:51.762Z,97445.23
2019-03-15T06:30:20.261Z,97458.38
2019-03-15T06:32:48.823Z,97443.21
2019-03-15T06:35:17.284Z,97448.30
2019-03-15T06:37:45.775Z,97454.63
2019-03-15T06:40:14.243Z,97458.38
2019-03-15T06:42:42.738Z,97456.75
2019-03-15T06:45:14.324Z,97461.41
2019-03-15T06:47:42.859Z,97465.31
2019-03-15T06:50:11.402Z,97469.38
2019-03-15T06:52:39.887Z,97466.78
2019-03-15T06:55:09.398Z,97481.23
2019-03-15T06:57:37.884Z,97474.12
2019-03-15T07:00:09.405Z,97489.48
2019-03-15T07:02:37.889Z,97498.34
2019-03-15T07:05:07.891Z,97486.89
2019-03-15T07:07:36.386Z,97496.67
2019-03-15T07:10:07.592Z,97491.88
2019-03-15T07:12:36.086Z,97492.05
2019-03-15T07:15:06.684Z,97499.83
2019-03-15T07:17:35.170Z,97496.62
2019-03-15T07:20:05.079Z,97493.03
2019-03-15T07:22:33.563Z,97496.03
2019-03-15T07:25:02.035Z,97490.07
2019-03-15T07:27:30.529Z,97489.63
2019-03-15T07:30:00.089Z,97491.20
2019-03-15T07:32:28.756Z,97499.41
2019-03-15T07:34:57.213Z,97498.44
2019-03-15T07:37:25.688Z,97508.58
2019-03-15T07:39:54.186Z,97506.95
2019-03-15T07:42:22.655Z,97506.20
2019-03-15T07:44:51.239Z,97512.23
2019-03-15T07:47:19.691Z,97510.13
2019-03-15T07:49:48.209Z,97506.57
2019-03-15T07:52:16.694Z,97518.03
2019-03-15T07:54:45.173Z,97511.34
2019-03-15T07:57:13.636Z,97516.33
2019-03-15T07:59:42.140Z,97526.77
2019-03-15T08:02:10.607Z,97515.94
2019-03-15T08:04:39.102Z,97529.81
2019-03-15T08:07:07.564Z,97526.98
2019-03-15T08:09:36.057Z,97525.22
2019-03-15T08:12:04.527Z,97523.63
2019-03-15T08:14:33.017Z,97528.68
2019-03-15T08:17:01.483Z,97528.95
2019-03-15T08:19:29.980Z,97537.32
2019-03-15T08:21:58.445Z,97537.90
2019-03-15T08:24:26.941Z,97540.46
2019-03-15T08:26:55.404Z,97543.25
2019-03-15T08:29:23.896Z,97553.52
2019-03-15T08:31:52.363Z,97538.20
2019-03-15T08:34:20.863Z,97548.64
2019-03-15T08:36:49.326Z,97534.88
2019-03-15T08:39:17.820Z,97548.77
2019-03-15T08:41:46.287Z,97535.48
2019-03-15T08:44:14.801Z,97540.19
2019-03-15T08:46:43.268Z,97539.13
2019-03-15T08:49:11.749Z,97542.83
2019-03-15T08:51:40.213Z,97550.02
2019-03-15T08:54:08.701Z,97551.25
2019-03-15T08:56:37.174Z,97559.25
2019-03-15T08:59:05.679Z,97559.16
2019-03-15T09:01:34.141Z,97565.97
2019-03-15T09:04:02.624Z,97570.19
2019-03-15T09:06:31.096Z,97577.87
2019-03-15T09:08:59.579Z,97568.31
2019-03-15T09:11:28.053Z,97573.99
2019-03-15T09:13:56.616Z,97576.16
2019-03-15T09:16:25.085Z,97569.44
2019-03-15T09:18:55.520Z,97574.19
2019-03-15T09:21:23.768Z,97566.23
2019-03-15T09:23:52.260Z,97554.16
2019-03-15T09:26:20.731Z,97566.36
2019-03-15T09:28:49.303Z,97570.67
2019-03-15T09:31:17.758Z,97565.09
2019-03-15T09:33:46.352Z,97571.38
2019-03-15T09:36:14.790Z,97570.41
2019-03-15T09:38:43.278Z,97571.39
2019-03-15T09:41:11.743Z,97558.51
2019-03-15T09:43:40.229Z,97562.84
2019-03-15T09:46:08.705Z,97561.01
2019-03-15T09:48:37.205Z,97555.36
2019-03-15T09:51:05.674Z,97556.25
2019-03-15T09:53:34.163Z,97552.52
2019-03-15T09:56:02.621Z,97564.73
2019-03-15T09:58:31.080Z,97556.21
2019-03-15T10:01:00.002Z,97554.97
2019-03-15T10:03:28.717Z,97559.59
2019-03-15T10:05:57.201Z,97566.36
2019-03-15T10:08:25.667Z,97561.55
2019-03-15T10:10:54.156Z,97559.20
2019-03-15T10:13:22.611Z,97558.33
2019-03-15T10:15:51.294Z,97557.59
2019-03-15T10:18:19.850Z,97556.97
2019-03-15T10:20:48.336Z,97556.46
2019-03-15T10:23:16.807Z,97554.19
2019-03-15T10:25:47.140Z,97556.28
2019-03-15T10:28:15.478Z,97553.33
2019-03-15T10:30:43.959Z,97542.71
2019-03-15T10:33:12.496Z,97545.00
2019-03-15T10:35:40.989Z,97547.42
2019-03-15T10:38:09.561Z,97543.48
2019-03-15T10:40:38.115Z,97553.33
2019-03-15T10:43:06.575Z,97552.45
2019-03-15T10:45:35.060Z,97550.11
2019-03-15T10:48:03.520Z,97554.20
2019-03-15T10:50:32.006Z,97540.70
2019-03-15T10:53:00.475Z,97534.95
2019-03-15T10:55:28.965Z,97531.36
2019-03-15T10:57:57.427Z,97535.83
2019-03-15T11:00:26.095Z,97534.55
2019-03-15T11:02:54.567Z,97532.06
2019-03-15T11:05:23.055Z,97526.80
2019-03-15T11:07:51.512Z,97535.64
2019-03-15T11:10:20.012Z,97539.05
2019-03-15T11:12:48.482Z,97536.95
2019-03-15T11:15:17.297Z,97535.87
2019-03-15T11:17:45.787Z,97532.88
2019-03-15T11:20:14.626Z,97537.00
2019-03-15T11:22:43.228Z,97536.92
2019-03-15T11:25:12.647Z,97524.86
2019-03-15T11:27:41.109Z,97536.07
2019-03-15T11:30:16.500Z,97527.27
2019-03-15T11:32:44.892Z,97530.36
2019-03-15T11:35:13.457Z,97524.66
2019-03-15T11:37:41.928Z,97515.98
2019-03-15T11:40:14.134Z,97515.92
2019-03-15T11:42:42.722Z,97522.26
2019-03-15T11:45:12.260Z,97509.16
2019-03-15T11:48:01.346Z,97504.48
2019-03-15T11:50:13.595Z,97510.38
2019-03-15T11:52:42.124Z,97505.56
2019-03-15T11:55:11.127Z,97508.20
2019-03-15T11:57:39.595Z,97504.47
2019-03-15T12:00:13.839Z,97515.16
2019-03-15T12:02:42.305Z,97505.41
2019-03-15T12:05:11.049Z,97505.05
2019-03-15T12:07:39.511Z,97492.45
2019-03-15T12:10:12.560Z,97487.87
2019-03-15T12:12:41.030Z,97487.83
2019-03-15T12:15:14.237Z,97465.69
2019-03-15T12:17:42.706Z,97468.80
2019-03-15T12:20:12.446Z,97470.00
2019-03-15T12:22:40.970Z,97469.26
2019-03-15T12:25:10.496Z,97467.62
2019-03-15T12:27:38.962Z,97461.88
2019-03-15T12:30:13.381Z,97466.72
2019-03-15T12:32:41.846Z,97470.03
2019-03-15T12:35:11.773Z,97471.75
2019-03-15T12:37:40.244Z,97460.69
2019-03-15T12:40:14.120Z,97460.33
2019-03-15T12:42:42.579Z,97459.61
2019-03-15T12:45:13.092Z,97460.09
2019-03-15T12:47:41.559Z,97459.91
2019-03-15T12:50:11.491Z,97458.99
2019-03-15T12:52:46.987Z,97451.76
2019-03-15T12:55:12.387Z,97448.72
2019-03-15T12:57:40.845Z,97460.12
2019-03-15T13:00:14.493Z,97438.67
2019-03-15T13:02:47.755Z,97434.95
2019-03-15T13:05:16.228Z,97427.88
2019-03-15T13:07:44.690Z,97222.16
2019-03-15T13:10:20.839Z,97427.59
2019-03-15T13:12:49.473Z,97423.89
2019-03-15T13:15:18.309Z,97424.65
2019-03-15T13:17:46.842Z,97416.27
2019-03-15T13:20:18.588Z,97419.42
2019-03-15T13:22:47.128Z,97412.13
2019-03-15T13:25:15.619Z,97406.83
2019-03-15T13:27:44.082Z,97398.69
2019-03-15T13:30:15.632Z,97403.58
2019-03-15T13:32:44.086Z,97396.87
2019-03-15T13:35:14.237Z,97382.71
2019-03-15T13:37:43.397Z,97388.39
2019-03-15T13:40:17.495Z,97396.72
2019-03-15T13:42:45.954Z,97384.72
2019-03-15T13:45:15.357Z,97383.95
2019-03-15T13:47:43.854Z,97375.61
2019-03-15T13:50:19.674Z,97375.66
2019-03-15T13:52:48.163Z,97377.95
2019-03-15T13:55:16.622Z,97392.73
2019-03-15T13:57:45.328Z,97378.96
2019-03-15T14:00:17.831Z,97378.75
2019-03-15T14:02:46.400Z,97365.61
2019-03-15T14:05:15.008Z,97374.17
2019-03-15T14:07:43.494Z,97360.33
2019-03-15T14:10:17.182Z,97355.96
2019-03-15T14:12:45.729Z,97352.65
2019-03-15T14:15:17.240Z,97356.45
2019-03-15T14:17:45.796Z,97351.55
2019-03-15T14:20:14.442Z,97352.03
2019-03-15T14:22:42.925Z,97350.11
2019-03-15T14:25:27.863Z,97349.02
2019-03-15T14:27:56.347Z,97344.83
2019-03-15T14:30:24.816Z,97336.22
2019-03-15T14:32:53.299Z,97329.72
2019-03-15T14:35:21.758Z,97327.72
2019-03-15T14:37:50.250Z,97312.50
2019-03-15T14:40:18.714Z,97313.16
2019-03-15T14:42:47.412Z,97313.61
2019-03-15T14:45:16.540Z,97309.77
2019-03-15T14:47:45.143Z,97300.86
2019-03-15T14:50:14.640Z,97291.34
2019-03-15T14:52:43.126Z,97293.06
2019-03-15T14:55:16.757Z,97302.13
2019-03-15T14:57:52.569Z,97295.24
2019-03-15T15:00:19.195Z,97292.50
2019-03-15T15:02:47.751Z,97303.06
2019-03-15T15:05:19.230Z,97293.31
2019-03-15T15:07:47.726Z,97294.16
2019-03-15T15:10:19.205Z,97286.40
2019-03-15T15:12:47.752Z,97295.87
2019-03-15T15:15:20.266Z,97283.55
2019-03-15T15:17:48.757Z,97274.95
2019-03-15T15:20:17.256Z,97276.87
2019-03-15T15:22:45.776Z,97262.61
2019-03-15T15:25:15.455Z,97300.69
2019-03-15T15:27:44.210Z,97264.75
2019-03-15T15:30:16.837Z,97252.34
2019-03-15T15:32:45.327Z,97261.76
2019-03-15T15:35:14.736Z,97257.75
2019-03-15T15:37:43.220Z,97252.86
2019-03-15T15:40:17.453Z,97239.95
2019-03-15T15:42:45.942Z,97264.91
2019-03-15T15:45:14.835Z,97238.95
2019-03-15T15:47:43.487Z,97248.44
2019-03-15T15:50:16.096Z,97233.55
2019-03-15T15:52:44.759Z,97228.22
2019-03-15T15:55:15.217Z,97224.52
2019-03-15T15:57:43.819Z,97230.73
2019-03-15T16:00:14.722Z,97226.05
2019-03-15T16:02:43.214Z,97222.73
2019-03-15T16:05:11.910Z,97228.22
2019-03-15T16:07:40.399Z,97219.09
2019-03-15T16:10:11.675Z,97222.20
2019-03-15T16:12:40.233Z,97234.78
2019-03-15T16:15:13.343Z,97226.06
2019-03-15T16:17:45.077Z,97231.37
2019-03-15T16:20:12.465Z,97223.95
2019-03-15T16:22:40.949Z,97217.97
2019-03-15T16:25:10.714Z,97218.69
2019-03-15T16:27:39.361Z,97212.58
2019-03-15T16:30:10.887Z,97220.48
2019-03-15T16:32:39.352Z,97216.30
2019-03-15T16:35:10.271Z,97204.27
2019-03-15T16:37:38.730Z,97211.45
2019-03-15T16:40:10.107Z,97215.59
2019-03-15T16:42:38.636Z,97201.88
2019-03-15T16:45:10.239Z,97191.44
2019-03-15T16:47:38.701Z,97196.31
2019-03-15T16:50:10.430Z,97202.60
2019-03-15T16:52:38.896Z,97203.01
2019-03-15T16:55:10.229Z,97191.23
2019-03-15T16:57:38.704Z,97200.61
2019-03-15T17:00:10.570Z,97190.59
2019-03-15T17:02:39.035Z,97182.23
2019-03-15T17:05:09.964Z,97148.80
2019-03-15T17:07:38.501Z,97134.03
2019-03-15T17:10:12.561Z,97127.83
2019-03-15T17:12:41.038Z,97108.20
2019-03-15T17:15:15.029Z,97101.95
2019-03-15T17:17:43.497Z,97093.28
2019-03-15T17:20:12.658Z,97099.66
2019-03-15T17:22:41.120Z,97100.46
2019-03-15T17:25:11.248Z,97098.66
2019-03-15T17:27:39.728Z,97094.52
2019-03-15T17:30:18.553Z,97099.84
2019-03-15T17:32:47.019Z,97093.70
2019-03-15T17:35:17.049Z,97105.70
2019-03-15T17:37:45.519Z,97102.14
2019-03-15T17:40:15.466Z,97107.53
2019-03-15T17:42:43.924Z,97109.95
2019-03-15T17:45:12.763Z,97102.55
2019-03-15T17:47:41.245Z,97111.72
2019-03-15T17:50:15.330Z,97102.12
2019-03-15T17:52:43.845Z,97106.03
2019-03-15T17:55:12.534Z,97102.31
2019-03-15T17:57:41.065Z,97102.70
2019-03-15T18:00:12.472Z,97106.59
2019-03-15T18:02:40.940Z,97108.31
2019-03-15T18:05:10.075Z,97103.64
2019-03-15T18:07:38.540Z,97091.44
2019-03-15T18:10:08.369Z,97087.32
2019-03-15T18:12:36.835Z,97080.73
2019-03-15T18:15:08.195Z,97065.11
2019-03-15T18:17:36.608Z,97061.83
2019-03-15T18:20:07.349Z,97057.34
2019-03-15T18:22:35.814Z,97047.14
2019-03-15T18:25:05.933Z,97034.70
2019-03-15T18:27:34.469Z,97045.63
2019-03-15T18:30:04.902Z,97036.27
2019-03-15T18:32:33.378Z,97030.98
2019-03-15T18:35:01.883Z,97011.28
2019-03-15T18:37:30.352Z,97016.55
2019-03-15T18:39:59.180Z,97007.36
2019-03-15T18:42:27.846Z,97012.64
2019-03-15T18:44:56.345Z,96995.83
2019-03-15T18:47:24.823Z,97000.02
2019-03-15T18:49:53.394Z,96997.33
2019-03-15T18:52:21.872Z,97009.44
2019-03-15T18:54:50.376Z,96998.77
2019-03-15T18:57:18.850Z,97005.48
2019-03-15T18:59:47.350Z,96997.90
2019-03-15T19:02:15.834Z,96998.94
2019-03-15T19:04:44.338Z,96990.23
2019-03-15T19:07:12.820Z,97005.67
2019-03-15T19:09:41.311Z,97013.00
2019-03-15T19:12:09.819Z,97030.44
2019-03-15T19:14:38.292Z,97078.59
2019-03-15T19:17:06.763Z,97113.66
2019-03-15T19:19:35.263Z,97113.36
2019-03-15T19:22:03.738Z,97116.51
2019-03-15T19:24:32.235Z,97119.08
2019-03-15T19:27:00.701Z,97119.42
2019-03-15T19:29:29.169Z,97116.81
2019-03-15T19:31:57.687Z,97123.51
2019-03-15T19:34:26.129Z,97120.92
2019-03-15T19:36:54.623Z,97142.25
2019-03-15T19:39:23.101Z,97118.72
2019-03-15T19:41:51.582Z,97140.95
2019-03-15T19:44:20.051Z,97131.96
2019-03-15T19:46:48.563Z,97126.64
2019-03-15T19:49:17.012Z,97108.06
2019-03-15T19:51:45.524Z,97118.02
2019-03-15T19:54:13.983Z,97111.93
2019-03-15T19:56:42.471Z,97109.98
2019-03-15T19:59:10.944Z,97092.78
2019-03-15T20:01:39.437Z,97104.46
2019-03-15T20:04:07.908Z,97106.77
2019-03-15T20:06:36.397Z,97094.36
2019-03-15T20:09:07.324Z,97113.30
2019-03-15T20:11:35.826Z,97106.95
2019-03-15T20:14:04.455Z,97118.95
2019-03-15T20:16:32.957Z,97124.68
2019-03-15T20:19:01.427Z,97125.58
2019-03-15T20:21:31.709Z,97140.92
2019-03-15T20:24:00.170Z,97142.13
2019-03-15T20:26:28.659Z,97138.70
2019-03-15T20:28:57.121Z,97138.50
2019-03-15T20:31:25.609Z,97110.72
2019-03-15T20:33:54.073Z,97130.58
2019-03-15T20:36:22.561Z,97141.19
2019-03-15T20:38:51.025Z,97134.99
2019-03-15T20:41:19.872Z,97148.08
2019-03-15T20:43:48.426Z,97152.03
2019-03-15T20:46:16.915Z,97156.78
2019-03-15T20:48:45.380Z,97137.77
2019-03-15T20:51:13.874Z,97155.31
2019-03-15T20:53:42.404Z,97146.58
2019-03-15T20:56:10.891Z,97147.71
2019-03-15T20:58:39.351Z,97152.47
2019-03-15T21:01:07.840Z,97153.84
2019-03-15T21:03:36.306Z,97157.19
2019-03-15T21:06:04.963Z,97163.07
2019-03-15T21:08:33.422Z,97164.17
2019-03-15T21:11:01.909Z,97166.88
2019-03-15T21:13:33.622Z,97172.84
2019-03-15T21:16:00.596Z,97177.66
2019-03-15T21:18:29.055Z,97168.19
2019-03-15T21:20:57.540Z,97175.96
2019-03-15T21:23:26.007Z,97191.10
2019-03-15T21:25:54.495Z,97188.13
2019-03-15T21:28:22.957Z,97193.08
2019-03-15T21:30:51.453Z,97204.41
2019-03-15T21:33:19.915Z,97210.09
2019-03-15T21:35:48.391Z,97215.34
2019-03-15T21:38:16.863Z,97223.72
2019-03-15T21:40:45.348Z,97232.72
2019-03-15T21:43:13.807Z,97228.41
2019-03-15T21:45:42.297Z,97230.64
2019-03-15T21:48:10.759Z,97226.38
2019-03-15T21:50:39.261Z,97233.25
2019-03-15T21:53:07.708Z,97227.44
2019-03-15T21:55:36.174Z,97236.74
2019-03-15T21:58:04.655Z,97231.63
2019-03-15T22:00:33.290Z,97230.52
2019-03-15T22:03:01.781Z,97233.33
2019-03-15T22:05:30.248Z,97237.74
2019-03-15T22:07:58.732Z,97260.28
2019-03-15T22:10:27.193Z,97251.75
2019-03-15T22:12:55.681Z,97250.46
2019-03-15T22:15:24.143Z,97259.48
2019-03-15T22:17:52.768Z,97263.33
2019-03-15T22:20:21.369Z,97272.95
2019-03-15T22:22:49.868Z,97275.80
2019-03-15T22:25:18.329Z,97272.03
2019-03-15T22:27:49.995Z,97281.56
2019-03-15T22:30:17.011Z,97277.41
2019-03-15T22:32:45.501Z,97277.83
2019-03-15T22:35:14.311Z,97283.02
2019-03-15T22:37:42.780Z,97286.14
2019-03-15T22:40:12.982Z,97288.03
2019-03-15T22:42:41.468Z,97300.45
2019-03-15T22:45:11.669Z,97300.41
2019-03-15T22:47:40.231Z,97304.26
2019-03-15T22:50:10.329Z,97311.63
2019-03-15T22:52:38.914Z,97321.79
2019-03-15T22:55:09.019Z,97319.77
2019-03-15T22:57:37.515Z,97327.92
2019-03-15T23:00:21.657Z,97337.62
2019-03-15T23:02:50.334Z,97343.97
2019-03-15T23:05:18.947Z,97361.08
2019-03-15T23:07:47.433Z,97345.00
2019-03-15T23:10:15.894Z,97355.80
2019-03-15T23:12:44.387Z,97367.64
2019-03-15T23:15:13.100Z,97368.32
2019-03-15T23:17:41.656Z,97401.59
2019-03-15T23:20:11.958Z,97367.62
2019-03-15T23:22:40.448Z,97374.75
2019-03-15T23:25:09.477Z,97386.44
2019-03-15T23:27:38.000Z,97386.06
2019-03-15T23:30:14.775Z,97396.38
2019-03-15T23:32:43.267Z,97408.59
2019-03-15T23:35:11.778Z,97400.69
2019-03-15T23:37:40.276Z,97400.98
2019-03-15T23:40:15.790Z,97406.33
2019-03-15T23:42:44.283Z,97401.78
2019-03-15T23:45:13.009Z,97418.02
2019-03-15T23:47:41.496Z,97421.73
2019-03-15T23:50:14.271Z,97418.96
2019-03-15T23:52:42.828Z,97429.00
2019-03-15T23:55:11.580Z,97442.09
2019-03-15T23:57:40.021Z,97422.48
